Limerick, Pennsylvania
Current Conditions -  °F | °C
As of 11:54 AM on Friday 28 Nov 2014 (Local Time) from KPTW Reporting Station
Broken Clouds Broken Clouds  
Wind Chill: 25°   Ceiling: 5000
Heat Index: 34°   Visibility: 10mi
Dew Point: 18°   Wind: 13mph
Humidity: 52%   Direction: 320°NW
Pressure: 30.23"   Gusts: 17mph
Location:  40.2034°N, 75.5319°W
Report Text: KPTW 281654Z AUTO 32011G15KT 10SM BKN050 01/M08 A3023 RMK AO2 SNE09 SLP239 P0000 T00111078
Loading
Personal Weather Stations






























Interactive Weather Map New forecast layout! Learn more

10-Day Weather Forecast

Advertisements
Track Severe Weather on mobile